createdAt,value
2022-11-05T00:00:37.340Z,93.29
2022-11-05T00:03:22.774Z,92.95
2022-11-05T00:06:11.565Z,93.31
2022-11-05T00:08:57.921Z,93.02
2022-11-05T00:11:44.301Z,93.54
2022-11-05T00:14:29.651Z,93.78
2022-11-05T00:16:56.017Z,93.77
2022-11-05T00:19:22.388Z,93.84
2022-11-05T00:22:07.156Z,93.22
2022-11-05T00:24:51.993Z,93.09
2022-11-05T00:27:18.443Z,93.27
2022-11-05T00:29:44.899Z,93.20
2022-11-05T00:32:11.390Z,93.72
2022-11-05T00:34:37.770Z,94.16
2022-11-05T00:37:04.127Z,93.73
2022-11-05T00:39:30.503Z,93.61
2022-11-05T00:42:15.612Z,94.52
2022-11-05T00:45:00.485Z,94.14
2022-11-05T00:47:45.722Z,94.31
2022-11-05T00:50:12.985Z,93.77
2022-11-05T00:52:58.141Z,94.82
2022-11-05T00:55:35.269Z,95.15
2022-11-05T00:58:03.155Z,94.87
2022-11-05T01:00:31.521Z,95.04
2022-11-05T01:02:59.846Z,95.26
2022-11-05T01:05:26.573Z,94.86
2022-11-05T01:07:53.228Z,95.33
2022-11-05T01:10:20.825Z,95.55
2022-11-05T01:12:48.004Z,95.58
2022-11-05T01:15:15.089Z,95.40
2022-11-05T01:17:41.521Z,95.43
2022-11-05T01:20:08.350Z,94.77
2022-11-05T01:22:34.735Z,95.26
2022-11-05T01:25:01.229Z,95.11
2022-11-05T01:27:27.605Z,94.68
2022-11-05T01:29:53.969Z,94.57
2022-11-05T01:32:20.378Z,94.79
2022-11-05T01:34:46.788Z,94.89
2022-11-05T01:37:13.680Z,94.94
2022-11-05T01:39:40.064Z,95.24
2022-11-05T01:42:22.242Z,95.29
2022-11-05T01:44:56.163Z,95.34
2022-11-05T01:47:44.226Z,95.18
2022-11-05T01:50:23.799Z,95.35
2022-11-05T01:52:54.100Z,95.39
2022-11-05T01:55:24.721Z,95.21
2022-11-05T01:57:54.320Z,95.13
2022-11-05T02:00:20.754Z,95.35
2022-11-05T02:02:47.874Z,94.32
2022-11-05T02:05:15.482Z,94.22
2022-11-05T02:07:46.410Z,94.23
2022-11-05T02:10:15.813Z,94.75
2022-11-05T02:12:45.542Z,94.75
2022-11-05T02:15:14.523Z,94.41
2022-11-05T02:18:19.285Z,94.38
2022-11-05T02:20:59.202Z,94.53
2022-11-05T02:23:34.221Z,94.07
2022-11-05T02:26:22.403Z,94.21
2022-11-05T02:29:11.648Z,93.61
2022-11-05T02:31:52.244Z,94.26
2022-11-05T02:34:27.646Z,94.08
2022-11-05T02:37:15.796Z,93.66
2022-11-05T02:39:45.259Z,93.93
2022-11-05T02:42:26.400Z,93.75
2022-11-05T02:45:14.510Z,94.37
2022-11-05T02:48:01.945Z,94.10
2022-11-05T02:50:36.247Z,93.81
2022-11-05T02:53:32.481Z,94.26
2022-11-05T02:56:18.163Z,94.17
2022-11-05T02:58:44.538Z,93.76
2022-11-05T03:01:14.095Z,94.04
2022-11-05T03:03:44.639Z,93.97
2022-11-05T03:06:47.356Z,93.77
2022-11-05T03:09:47.535Z,94.29
2022-11-05T03:12:26.229Z,93.50
2022-11-05T03:15:15.420Z,93.64
2022-11-05T03:17:53.469Z,94.12
2022-11-05T03:20:25.724Z,94.59
2022-11-05T03:23:00.556Z,94.37
2022-11-05T03:25:30.315Z,94.42
2022-11-05T03:28:02.850Z,94.71
2022-11-05T03:30:31.984Z,93.86
2022-11-05T03:33:03.177Z,94.41
2022-11-05T03:35:34.244Z,94.60
2022-11-05T03:38:06.287Z,94.86
2022-11-05T03:40:36.518Z,94.95
2022-11-05T03:43:08.455Z,94.81
2022-11-05T03:45:40.459Z,95.39
2022-11-05T03:48:10.456Z,95.58
2022-11-05T03:51:07.731Z,95.09
2022-11-05T03:53:42.854Z,95.32
2022-11-05T03:56:18.116Z,95.08
2022-11-05T03:58:46.427Z,95.44
2022-11-05T04:01:13.141Z,95.32
2022-11-05T04:03:39.602Z,95.39
2022-11-05T04:06:26.542Z,95.61
2022-11-05T04:09:11.753Z,95.77
2022-11-05T04:11:56.917Z,95.48
2022-11-05T04:14:23.308Z,95.31
2022-11-05T04:17:08.720Z,95.36
2022-11-05T04:20:04.116Z,96.30
2022-11-05T04:22:52.045Z,96.23
2022-11-05T04:25:19.481Z,96.08
2022-11-05T04:27:46.755Z,95.67
2022-11-05T04:30:18.349Z,95.68
2022-11-05T04:32:59.606Z,96.04
2022-11-05T04:35:28.097Z,96.16
2022-11-05T04:37:54.472Z,96.29
2022-11-05T04:40:20.903Z,95.85
2022-11-05T04:42:47.290Z,95.91
2022-11-05T04:45:13.792Z,96.25
2022-11-05T04:47:40.200Z,96.02
2022-11-05T04:50:06.708Z,96.69
2022-11-05T04:52:33.057Z,96.80
2022-11-05T04:54:59.433Z,96.48
2022-11-05T04:57:25.790Z,96.49
2022-11-05T04:59:52.170Z,96.79
2022-11-05T05:02:18.785Z,96.53
2022-11-05T05:04:45.185Z,96.68
2022-11-05T05:07:11.545Z,97.09
2022-11-05T05:09:37.911Z,96.76
2022-11-05T05:12:04.418Z,96.64
2022-11-05T05:14:30.810Z,96.75
2022-11-05T05:16:57.236Z,96.92
2022-11-05T05:19:24.550Z,97.05
2022-11-05T05:21:51.108Z,96.89
2022-11-05T05:24:19.365Z,97.19
2022-11-05T05:26:48.061Z,97.55
2022-11-05T05:29:15.415Z,97.12
2022-11-05T05:31:42.510Z,97.45
2022-11-05T05:34:12.623Z,97.57
2022-11-05T05:36:39.022Z,97.27
2022-11-05T05:39:06.922Z,97.59
2022-11-05T05:41:33.490Z,97.67
2022-11-05T05:44:00.003Z,97.58
2022-11-05T05:46:26.402Z,97.42
2022-11-05T05:48:52.821Z,97.54
2022-11-05T05:51:19.741Z,97.70
2022-11-05T05:53:46.290Z,98.04
2022-11-05T05:56:14.958Z,97.44
2022-11-05T05:58:41.801Z,97.99
2022-11-05T06:01:17.240Z,98.20
2022-11-05T06:03:45.203Z,98.30
2022-11-05T06:06:13.085Z,97.74
2022-11-05T06:08:39.805Z,98.23
2022-11-05T06:11:07.031Z,98.49
2022-11-05T06:13:33.836Z,98.43
2022-11-05T06:16:05.620Z,98.44
2022-11-05T06:18:32.887Z,99.05
2022-11-05T06:21:07.462Z,99.12
2022-11-05T06:23:35.470Z,99.25
2022-11-05T06:26:04.048Z,98.78
2022-11-05T06:28:30.728Z,99.10
2022-11-05T06:30:57.579Z,99.50
2022-11-05T06:33:24.064Z,98.88
2022-11-05T06:35:50.486Z,99.44
2022-11-05T06:38:17.013Z,98.70
2022-11-05T06:40:43.446Z,99.39
2022-11-05T06:43:10.317Z,99.27
2022-11-05T06:45:37.032Z,99.02
2022-11-05T06:48:03.515Z,99.29
2022-11-05T06:50:29.902Z,98.67
2022-11-05T06:52:58.072Z,99.36
2022-11-05T06:55:27.067Z,98.54
2022-11-05T06:57:53.575Z,98.28
2022-11-05T07:00:20.129Z,98.11
2022-11-05T07:02:46.752Z,98.69
2022-11-05T07:05:14.542Z,98.00
2022-11-05T07:07:41.907Z,98.09
2022-11-05T07:10:12.147Z,97.98
2022-11-05T07:12:38.737Z,97.18
2022-11-05T07:15:05.959Z,97.66
2022-11-05T07:17:32.384Z,97.00
2022-11-05T07:19:58.800Z,97.28
2022-11-05T07:22:25.199Z,97.47
2022-11-05T07:24:51.557Z,97.33
2022-11-05T07:27:17.942Z,97.23
2022-11-05T07:29:44.294Z,96.78
2022-11-05T07:32:10.674Z,96.56
2022-11-05T07:34:37.042Z,96.63
2022-11-05T07:37:03.529Z,96.60
2022-11-05T07:39:29.894Z,96.13
2022-11-05T07:41:57.651Z,95.64
2022-11-05T07:44:31.535Z,95.31
2022-11-05T07:46:57.886Z,95.34
2022-11-05T07:49:24.235Z,95.37
2022-11-05T07:51:50.635Z,95.40
2022-11-05T07:54:17.026Z,95.18
2022-11-05T07:56:43.393Z,95.02
2022-11-05T07:59:09.825Z,95.25
2022-11-05T08:01:36.344Z,94.92
2022-11-05T08:04:02.896Z,94.82
2022-11-05T08:06:29.277Z,94.97
2022-11-05T08:08:55.846Z,95.63
2022-11-05T08:11:22.212Z,95.14
2022-11-05T08:13:48.567Z,95.18
2022-11-05T08:16:15.476Z,95.24
2022-11-05T08:18:41.900Z,96.13
2022-11-05T08:21:09.448Z,96.08
2022-11-05T08:23:35.905Z,95.80
2022-11-05T08:26:03.557Z,96.38
2022-11-05T08:28:30.203Z,96.34
2022-11-05T08:30:57.564Z,96.56
2022-11-05T08:33:25.432Z,97.14
2022-11-05T08:35:51.911Z,96.37
2022-11-05T08:38:19.916Z,96.67
2022-11-05T08:40:55.577Z,97.18
2022-11-05T08:43:22.448Z,96.72
2022-11-05T08:45:49.271Z,96.69
2022-11-05T08:48:18.662Z,96.75
2022-11-05T08:50:46.847Z,97.21
2022-11-05T08:53:14.321Z,96.70
2022-11-05T08:55:40.993Z,96.64
2022-11-05T08:58:12.371Z,97.24
2022-11-05T09:00:38.890Z,97.60
2022-11-05T09:03:07.340Z,97.20
2022-11-05T09:05:39.034Z,97.74
2022-11-05T09:08:06.722Z,97.33
2022-11-05T09:10:33.512Z,97.55
2022-11-05T09:12:59.866Z,97.58
2022-11-05T09:15:26.622Z,97.90
2022-11-05T09:17:53.040Z,97.69
2022-11-05T09:20:19.519Z,97.30
2022-11-05T09:22:46.664Z,97.22
2022-11-05T09:25:13.658Z,97.32
2022-11-05T09:27:39.991Z,97.40
2022-11-05T09:30:06.957Z,97.42
2022-11-05T09:32:33.679Z,97.09
2022-11-05T09:35:01.128Z,97.29
2022-11-05T09:37:28.125Z,96.95
2022-11-05T09:39:54.891Z,96.25
2022-11-05T09:42:25.194Z,95.77
2022-11-05T09:45:08.564Z,95.77
2022-11-05T09:47:40.129Z,95.70
2022-11-05T09:50:12.573Z,95.19
2022-11-05T09:52:38.967Z,95.28
2022-11-05T09:55:18.638Z,95.12
2022-11-05T09:57:55.881Z,95.33
2022-11-05T10:00:22.536Z,94.51
2022-11-05T10:02:56.320Z,94.45
2022-11-05T10:05:25.234Z,94.23
2022-11-05T10:07:57.375Z,94.08
2022-11-05T10:10:41.206Z,93.58
2022-11-05T10:13:45.229Z,92.43
2022-11-05T10:16:31.977Z,92.04
2022-11-05T10:19:16.102Z,91.40
2022-11-05T10:22:05.521Z,90.44
2022-11-05T10:24:29.509Z,90.41
2022-11-05T10:26:57.294Z,89.44
2022-11-05T10:29:29.156Z,88.57
2022-11-05T10:31:57.975Z,87.91
2022-11-05T10:34:30.610Z,87.60
2022-11-05T10:36:57.313Z,87.62
2022-11-05T10:39:24.905Z,87.78
2022-11-05T10:42:30.907Z,86.98
2022-11-05T10:45:19.587Z,86.76
2022-11-05T10:48:15.189Z,86.63
2022-11-05T10:50:44.145Z,84.83
2022-11-05T10:53:19.199Z,83.01
2022-11-05T10:55:50.923Z,81.44
2022-11-05T10:58:21.862Z,80.19
2022-11-05T11:01:04.111Z,81.15
2022-11-05T11:03:41.645Z,80.05
2022-11-05T11:06:27.216Z,79.01
2022-11-05T11:08:56.958Z,78.61
2022-11-05T11:11:29.238Z,79.09
2022-11-05T11:14:04.603Z,80.03
2022-11-05T11:16:37.619Z,80.71
2022-11-05T11:19:20.741Z,81.89
2022-11-05T11:22:11.179Z,83.25
2022-11-05T11:24:56.901Z,84.36
2022-11-05T11:27:30.189Z,85.24
2022-11-05T11:30:04.977Z,85.66
2022-11-05T11:32:37.278Z,86.17
2022-11-05T11:35:06.733Z,86.49
2022-11-05T11:37:42.583Z,87.18
2022-11-05T11:40:31.344Z,87.54
2022-11-05T11:43:01.628Z,88.02
2022-11-05T11:45:37.387Z,88.30
2022-11-05T11:48:14.679Z,89.07
2022-11-05T11:50:43.714Z,89.23
2022-11-05T11:53:22.107Z,89.59
2022-11-05T11:55:59.323Z,90.38
2022-11-05T11:58:47.493Z,90.60
2022-11-05T12:01:19.939Z,90.96
2022-11-05T12:03:57.506Z,91.31
2022-11-05T12:06:39.227Z,91.25
2022-11-05T12:09:23.344Z,91.22
2022-11-05T12:11:56.420Z,91.68
2022-11-05T12:14:46.597Z,92.45
2022-11-05T12:17:21.988Z,92.22
2022-11-05T12:20:19.854Z,92.63
2022-11-05T12:22:56.442Z,92.90
2022-11-05T12:25:35.796Z,93.18
2022-11-05T12:28:24.164Z,93.32
2022-11-05T12:31:11.819Z,93.21
2022-11-05T12:34:10.643Z,93.78
2022-11-05T12:36:42.506Z,93.78
2022-11-05T12:39:19.164Z,94.21
2022-11-05T12:42:17.248Z,93.76
2022-11-05T12:45:01.798Z,94.16
2022-11-05T12:47:46.250Z,94.44
2022-11-05T12:50:15.787Z,94.63
2022-11-05T12:53:14.878Z,94.83
2022-11-05T12:55:48.816Z,94.98
2022-11-05T12:58:34.639Z,94.60
2022-11-05T13:01:13.181Z,94.97
2022-11-05T13:03:58.558Z,95.43
2022-11-05T13:06:36.338Z,94.86
2022-11-05T13:09:12.271Z,95.22
2022-11-05T13:11:45.230Z,95.60
2022-11-05T13:14:16.092Z,95.13
2022-11-05T13:16:47.272Z,95.09
2022-11-05T13:19:21.179Z,95.27
2022-11-05T13:21:53.972Z,94.90
2022-11-05T13:24:49.630Z,95.38
2022-11-05T13:27:18.964Z,95.41
2022-11-05T13:29:57.141Z,95.11
2022-11-05T13:32:31.112Z,94.45
2022-11-05T13:35:00.867Z,94.72
2022-11-05T13:37:49.963Z,93.78
2022-11-05T13:40:20.132Z,93.71
2022-11-05T13:43:05.280Z,93.61
2022-11-05T13:46:05.662Z,93.88
2022-11-05T13:48:57.181Z,93.70
2022-11-05T13:51:51.868Z,93.52
2022-11-05T13:54:45.327Z,94.03
2022-11-05T13:57:32.250Z,94.05
2022-11-05T14:00:08.933Z,93.53
2022-11-05T14:02:40.457Z,93.47
2022-11-05T14:05:19.198Z,93.85
2022-11-05T14:07:47.531Z,93.18
2022-11-05T14:10:21.641Z,94.13
2022-11-05T14:12:51.597Z,93.53
2022-11-05T14:15:22.766Z,93.15
2022-11-05T14:18:02.003Z,93.21
2022-11-05T14:20:31.127Z,93.82
2022-11-05T14:23:22.982Z,93.95
2022-11-05T14:26:13.510Z,93.90
2022-11-05T14:28:51.444Z,93.67
2022-11-05T14:31:40.984Z,94.09
2022-11-05T14:34:20.414Z,93.18
2022-11-05T14:37:13.980Z,93.97
2022-11-05T14:39:41.253Z,93.74
2022-11-05T14:42:28.780Z,94.30
2022-11-05T14:44:58.429Z,94.15
2022-11-05T14:47:28.228Z,93.33
2022-11-05T14:50:03.003Z,93.43
2022-11-05T14:52:29.464Z,93.26
2022-11-05T14:54:58.132Z,93.81
2022-11-05T14:57:42.530Z,93.41
2022-11-05T15:00:28.355Z,93.59
2022-11-05T15:03:03.593Z,93.26
2022-11-05T15:05:48.005Z,93.04
2022-11-05T15:08:24.725Z,93.21
2022-11-05T15:10:54.240Z,93.61
2022-11-05T15:13:34.111Z,92.58
2022-11-05T15:16:00.483Z,92.91
2022-11-05T15:18:35.169Z,92.20
2022-11-05T15:21:04.781Z,91.95
2022-11-05T15:23:40.634Z,91.93
2022-11-05T15:26:12.343Z,92.02
2022-11-05T15:28:43.274Z,91.72
2022-11-05T15:31:12.621Z,91.91
2022-11-05T15:33:44.466Z,91.56
2022-11-05T15:36:31.203Z,91.69
2022-11-05T15:39:23.325Z,91.56
2022-11-05T15:41:44.916Z,91.74
2022-11-05T15:44:32.011Z,92.25
2022-11-05T15:47:22.107Z,91.85
2022-11-05T15:49:58.690Z,92.43
2022-11-05T15:52:35.847Z,92.56
2022-11-05T15:55:14.362Z,92.38
2022-11-05T15:57:55.448Z,92.57
2022-11-05T16:00:27.716Z,92.65
2022-11-05T16:03:17.324Z,92.64
2022-11-05T16:05:46.289Z,92.75
2022-11-05T16:08:18.840Z,93.40
2022-11-05T16:10:53.091Z,93.20
2022-11-05T16:13:32.052Z,93.00
2022-11-05T16:16:01.296Z,92.70
2022-11-05T16:18:34.392Z,93.05
2022-11-05T16:21:08.020Z,92.96
2022-11-05T16:23:49.532Z,93.63
2022-11-05T16:29:39.185Z,93.51
2022-11-05T16:32:15.044Z,93.17
2022-11-05T16:34:46.604Z,93.46
2022-11-05T16:37:15.595Z,93.69
2022-11-05T16:39:41.992Z,93.43
2022-11-05T16:42:36.893Z,93.55
2022-11-05T16:45:07.340Z,93.88
2022-11-05T16:47:36.986Z,93.64
2022-11-05T16:50:14.533Z,93.73
2022-11-05T16:52:40.982Z,94.13
2022-11-05T16:55:08.936Z,94.24
2022-11-05T16:57:35.940Z,94.40
2022-11-05T17:00:02.427Z,94.61
2022-11-05T17:02:28.929Z,94.17
2022-11-05T17:04:55.486Z,94.43
2022-11-05T17:07:22.010Z,94.44
2022-11-05T17:09:48.563Z,93.89
2022-11-05T17:12:15.335Z,94.73
2022-11-05T17:14:41.739Z,94.43
2022-11-05T17:17:08.196Z,94.48
2022-11-05T17:19:34.725Z,94.07
2022-11-05T17:22:01.143Z,94.21
2022-11-05T17:24:27.613Z,93.87
2022-11-05T17:26:54.600Z,93.12
2022-11-05T17:29:21.053Z,93.62
2022-11-05T17:31:47.485Z,93.46
2022-11-05T17:34:13.896Z,93.58
2022-11-05T17:36:40.237Z,93.09
2022-11-05T17:39:06.725Z,93.52
2022-11-05T17:41:33.144Z,93.86
2022-11-05T17:44:00.240Z,93.62
2022-11-05T17:46:26.779Z,93.61
2022-11-05T17:48:53.218Z,93.65
2022-11-05T17:51:20.342Z,93.67
2022-11-05T17:53:48.940Z,93.86
2022-11-05T17:56:28.937Z,93.47
2022-11-05T17:59:00.108Z,93.94
2022-11-05T18:01:29.850Z,94.38
2022-11-05T18:03:56.613Z,93.97
2022-11-05T18:06:23.059Z,94.28
2022-11-05T18:08:49.547Z,94.08
2022-11-05T18:11:16.180Z,93.97
2022-11-05T18:13:42.798Z,93.45
2022-11-05T18:16:09.183Z,93.35
2022-11-05T18:18:35.650Z,93.26
2022-11-05T18:21:02.044Z,93.12
2022-11-05T18:23:28.418Z,93.19
2022-11-05T18:25:54.803Z,94.10
2022-11-05T18:28:21.206Z,93.46
2022-11-05T18:30:47.597Z,94.03
2022-11-05T18:33:14.399Z,93.59
2022-11-05T18:35:44.878Z,92.88
2022-11-05T18:38:11.607Z,93.49
2022-11-05T18:40:38.330Z,93.13
2022-11-05T18:43:04.715Z,93.64
2022-11-05T18:45:33.221Z,93.63
2022-11-05T18:48:01.505Z,93.11
2022-11-05T18:50:29.024Z,93.31
2022-11-05T18:52:56.158Z,93.75
2022-11-05T18:55:23.564Z,93.33
2022-11-05T18:57:50.038Z,93.20
2022-11-05T19:00:16.785Z,93.55
2022-11-05T19:02:43.335Z,93.28
2022-11-05T19:07:56.859Z,92.93
2022-11-05T19:10:23.394Z,93.07
2022-11-05T19:12:50.129Z,93.23
2022-11-05T19:15:16.927Z,92.82
2022-11-05T19:17:43.621Z,91.61
2022-11-05T19:20:10.661Z,91.59
2022-11-05T19:22:37.208Z,91.02
2022-11-05T19:25:05.015Z,91.27
2022-11-05T19:27:31.423Z,90.76
2022-11-05T19:29:57.794Z,90.77
2022-11-05T19:32:24.424Z,89.72
2022-11-05T19:34:50.795Z,90.58
2022-11-05T19:37:17.234Z,90.34
2022-11-05T19:39:43.836Z,90.40
2022-11-05T19:42:10.205Z,90.77
2022-11-05T19:44:36.650Z,91.09
2022-11-05T19:47:03.071Z,91.14
2022-11-05T19:49:29.431Z,90.44
2022-11-05T19:51:56.036Z,91.13
2022-11-05T19:54:22.644Z,90.85
2022-11-05T19:56:50.178Z,91.58
2022-11-05T19:59:16.675Z,91.81
2022-11-05T20:01:43.199Z,92.15
2022-11-05T20:04:11.806Z,92.03
2022-11-05T20:06:39.999Z,92.27
2022-11-05T20:09:27.106Z,92.69
2022-11-05T20:11:56.070Z,92.99
2022-11-05T20:14:23.881Z,92.65
2022-11-05T20:16:50.756Z,92.12
2022-11-05T20:19:19.219Z,91.73
2022-11-05T20:21:46.000Z,92.95
2022-11-05T20:24:18.828Z,92.14
2022-11-05T20:26:48.720Z,92.52
2022-11-05T20:29:15.146Z,92.18
2022-11-05T20:31:41.555Z,92.51
2022-11-05T20:34:08.824Z,92.16
2022-11-05T20:36:35.204Z,92.08
2022-11-05T20:39:02.856Z,92.13
2022-11-05T20:41:30.544Z,92.11
2022-11-05T20:43:56.971Z,91.17
2022-11-05T20:46:23.697Z,91.42
2022-11-05T20:48:50.611Z,90.98
2022-11-05T20:51:20.127Z,90.49
2022-11-05T20:53:47.633Z,91.35
2022-11-05T20:56:22.620Z,91.00
2022-11-05T20:58:49.452Z,90.91
2022-11-05T21:01:16.660Z,91.42
2022-11-05T21:03:45.214Z,91.46
2022-11-05T21:06:12.688Z,91.85
2022-11-05T21:08:39.505Z,92.11
2022-11-05T21:11:07.009Z,91.61
2022-11-05T21:13:33.953Z,91.73
2022-11-05T21:16:00.959Z,91.66
2022-11-05T21:18:30.188Z,92.64
2022-11-05T21:20:57.411Z,91.73
2022-11-05T21:23:23.856Z,91.80
2022-11-05T21:25:50.343Z,91.67
2022-11-05T21:28:17.160Z,91.88
2022-11-05T21:30:45.718Z,90.74
2022-11-05T21:33:13.611Z,89.83
2022-11-05T21:35:46.113Z,90.04
2022-11-05T21:38:15.111Z,90.94
2022-11-05T21:40:42.463Z,89.81
2022-11-05T21:43:09.116Z,90.04
2022-11-05T21:45:38.219Z,90.01
2022-11-05T21:48:04.911Z,89.88
2022-11-05T21:50:49.828Z,90.02
2022-11-05T21:53:35.813Z,90.35
2022-11-05T21:56:56.733Z,89.35
2022-11-05T21:59:43.210Z,89.20
2022-11-05T22:02:12.019Z,88.64
2022-11-05T22:04:41.745Z,88.63
2022-11-05T22:07:09.491Z,88.40
2022-11-05T22:09:36.342Z,88.80
2022-11-05T22:12:03.087Z,89.26
2022-11-05T22:14:29.695Z,88.93
2022-11-05T22:16:56.874Z,88.04
2022-11-05T22:19:23.824Z,88.08
2022-11-05T22:21:50.930Z,87.82
2022-11-05T22:24:18.087Z,87.29
2022-11-05T22:26:44.719Z,87.56
2022-11-05T22:29:12.081Z,87.14
2022-11-05T22:31:38.515Z,87.03
2022-11-05T22:34:06.053Z,87.10
2022-11-05T22:36:34.167Z,86.44
2022-11-05T22:39:01.231Z,87.18
2022-11-05T22:41:27.667Z,87.22
2022-11-05T22:43:54.210Z,87.69
2022-11-05T22:46:23.058Z,87.64
2022-11-05T22:48:49.835Z,87.30
2022-11-05T22:51:19.899Z,86.43
2022-11-05T22:53:46.780Z,87.19
2022-11-05T22:56:15.439Z,87.47
2022-11-05T22:58:41.879Z,87.49
2022-11-05T23:01:11.719Z,87.33
2022-11-05T23:03:40.614Z,87.48
2022-11-05T23:06:30.036Z,87.59
2022-11-05T23:09:15.919Z,87.97
2022-11-05T23:11:44.269Z,87.91
2022-11-05T23:14:12.767Z,88.11
2022-11-05T23:16:58.138Z,87.90
2022-11-05T23:19:43.455Z,88.25
2022-11-05T23:22:37.852Z,88.44
2022-11-05T23:25:06.048Z,87.94
2022-11-05T23:27:35.442Z,87.46
2022-11-05T23:30:05.396Z,87.55
2022-11-05T23:32:32.567Z,87.51
2022-11-05T23:34:58.982Z,87.54
2022-11-05T23:37:46.317Z,87.17
2022-11-05T23:40:16.509Z,87.54
2022-11-05T23:43:02.172Z,87.29
2022-11-05T23:45:48.486Z,87.21
2022-11-05T23:48:36.091Z,86.93
2022-11-05T23:51:10.862Z,87.29
2022-11-05T23:53:40.043Z,87.34
2022-11-05T23:56:09.681Z,87.10
2022-11-05T23:58:37.205Z,87.55
